sensor_id;sensor_type;location;lat;lon;timestamp;temperature;humidity
17421;DHT22;8828;48.800;9.540;2022-09-30T00:02:21;9.40;99.90
17421;DHT22;8828;48.800;9.540;2022-09-30T00:04:50;9.40;99.90
17421;DHT22;8828;48.800;9.540;2022-09-30T00:07:17;9.40;99.90
17421;DHT22;8828;48.800;9.540;2022-09-30T00:09:45;9.40;99.90
17421;DHT22;8828;48.800;9.540;2022-09-30T00:12:14;9.40;99.90
17421;DHT22;8828;48.800;9.540;2022-09-30T00:14:41;9.50;99.90
17421;DHT22;8828;48.800;9.540;2022-09-30T00:17:09;9.60;99.90
17421;DHT22;8828;48.800;9.540;2022-09-30T00:19:37;9.60;99.90
17421;DHT22;8828;48.800;9.540;2022-09-30T00:22:06;9.60;99.90
17421;DHT22;8828;48.800;9.540;2022-09-30T00:24:34;9.60;99.90
17421;DHT22;8828;48.800;9.540;2022-09-30T00:27:01;9.60;99.90
17421;DHT22;8828;48.800;9.540;2022-09-30T00:29:29;9.70;99.90
17421;DHT22;8828;48.800;9.540;2022-09-30T00:31:57;9.60;99.90
17421;DHT22;8828;48.800;9.540;2022-09-30T00:34:25;9.70;99.90
17421;DHT22;8828;48.800;9.540;2022-09-30T00:36:53;9.60;99.90
17421;DHT22;8828;48.800;9.540;2022-09-30T00:39:24;9.60;99.90
17421;DHT22;8828;48.800;9.540;2022-09-30T00:41:52;9.60;99.90
17421;DHT22;8828;48.800;9.540;2022-09-30T00:47:08;9.60;99.90
17421;DHT22;8828;48.800;9.540;2022-09-30T00:49:44;9.50;99.90
17421;DHT22;8828;48.800;9.540;2022-09-30T00:52:11;9.50;99.90
17421;DHT22;8828;48.800;9.540;2022-09-30T00:54:40;9.60;99.90
17421;DHT22;8828;48.800;9.540;2022-09-30T00:57:09;9.50;99.90
17421;DHT22;8828;48.800;9.540;2022-09-30T00:59:38;9.60;99.90
17421;DHT22;8828;48.800;9.540;2022-09-30T01:02:07;9.50;99.90
17421;DHT22;8828;48.800;9.540;2022-09-30T01:04:36;9.50;99.90
17421;DHT22;8828;48.800;9.540;2022-09-30T01:07:04;9.50;99.90
17421;DHT22;8828;48.800;9.540;2022-09-30T01:09:32;9.60;99.90
17421;DHT22;8828;48.800;9.540;2022-09-30T01:12:03;9.60;99.90
17421;DHT22;8828;48.800;9.540;2022-09-30T01:14:31;9.60;99.90
17421;DHT22;8828;48.800;9.540;2022-09-30T01:17:00;9.50;99.90
17421;DHT22;8828;48.800;9.540;2022-09-30T01:22:19;9.50;99.90
17421;DHT22;8828;48.800;9.540;2022-09-30T01:25:02;9.50;99.90
17421;DHT22;8828;48.800;9.540;2022-09-30T01:27:42;9.50;99.90
17421;DHT22;8828;48.800;9.540;2022-09-30T01:30:14;9.60;99.90
17421;DHT22;8828;48.800;9.540;2022-09-30T01:35:36;9.60;99.90
17421;DHT22;8828;48.800;9.540;2022-09-30T01:38:08;9.60;99.90
17421;DHT22;8828;48.800;9.540;2022-09-30T01:40:39;9.50;99.90
17421;DHT22;8828;48.800;9.540;2022-09-30T01:43:13;9.50;99.90
17421;DHT22;8828;48.800;9.540;2022-09-30T01:45:45;9.50;99.90
17421;DHT22;8828;48.800;9.540;2022-09-30T01:48:17;9.60;99.90
17421;DHT22;8828;48.800;9.540;2022-09-30T01:50:50;9.50;99.90
17421;DHT22;8828;48.800;9.540;2022-09-30T01:53:20;9.50;99.90
17421;DHT22;8828;48.800;9.540;2022-09-30T01:55:51;9.50;99.90
17421;DHT22;8828;48.800;9.540;2022-09-30T01:58:23;9.40;99.90
17421;DHT22;8828;48.800;9.540;2022-09-30T02:00:57;9.40;99.90
17421;DHT22;8828;48.800;9.540;2022-09-30T02:03:28;9.40;99.90
17421;DHT22;8828;48.800;9.540;2022-09-30T02:05:59;9.40;99.90
17421;DHT22;8828;48.800;9.540;2022-09-30T02:08:29;9.40;99.90
17421;DHT22;8828;48.800;9.540;2022-09-30T02:10:59;9.40;99.90
17421;DHT22;8828;48.800;9.540;2022-09-30T02:13:29;9.40;99.90
17421;DHT22;8828;48.800;9.540;2022-09-30T02:15:59;9.40;99.90
17421;DHT22;8828;48.800;9.540;2022-09-30T02:18:28;9.40;99.90
17421;DHT22;8828;48.800;9.540;2022-09-30T02:21:00;9.40;99.90
17421;DHT22;8828;48.800;9.540;2022-09-30T02:23:29;9.40;99.90
17421;DHT22;8828;48.800;9.540;2022-09-30T02:25:59;9.40;99.90
17421;DHT22;8828;48.800;9.540;2022-09-30T02:28:31;9.40;99.90
17421;DHT22;8828;48.800;9.540;2022-09-30T02:30:59;9.40;99.90
17421;DHT22;8828;48.800;9.540;2022-09-30T02:33:30;9.50;99.90
17421;DHT22;8828;48.800;9.540;2022-09-30T02:36:00;9.40;99.90
17421;DHT22;8828;48.800;9.540;2022-09-30T02:38:32;9.40;99.90
17421;DHT22;8828;48.800;9.540;2022-09-30T02:41:03;9.30;99.90
17421;DHT22;8828;48.800;9.540;2022-09-30T02:43:33;9.30;99.90
17421;DHT22;8828;48.800;9.540;2022-09-30T02:46:03;9.20;99.90
17421;DHT22;8828;48.800;9.540;2022-09-30T02:48:34;9.20;99.90
17421;DHT22;8828;48.800;9.540;2022-09-30T02:51:05;9.20;99.90
17421;DHT22;8828;48.800;9.540;2022-09-30T02:53:36;9.10;99.90
17421;DHT22;8828;48.800;9.540;2022-09-30T02:56:12;9.10;99.90
17421;DHT22;8828;48.800;9.540;2022-09-30T02:58:42;9.10;99.90
17421;DHT22;8828;48.800;9.540;2022-09-30T03:01:12;9.10;99.90
17421;DHT22;8828;48.800;9.540;2022-09-30T03:03:41;9.10;99.90
17421;DHT22;8828;48.800;9.540;2022-09-30T03:06:11;9.00;99.90
17421;DHT22;8828;48.800;9.540;2022-09-30T03:08:39;9.00;99.90
17421;DHT22;8828;48.800;9.540;2022-09-30T03:11:06;9.00;99.90
17421;DHT22;8828;48.800;9.540;2022-09-30T03:16:25;9.00;99.90
17421;DHT22;8828;48.800;9.540;2022-09-30T03:18:57;9.00;99.90
17421;DHT22;8828;48.800;9.540;2022-09-30T03:21:31;9.00;99.90
17421;DHT22;8828;48.800;9.540;2022-09-30T03:26:45;8.90;99.90
17421;DHT22;8828;48.800;9.540;2022-09-30T03:29:18;8.90;99.90
17421;DHT22;8828;48.800;9.540;2022-09-30T03:31:53;8.90;99.90
17421;DHT22;8828;48.800;9.540;2022-09-30T03:34:26;8.90;99.90
17421;DHT22;8828;48.800;9.540;2022-09-30T03:36:59;8.90;99.90
17421;DHT22;8828;48.800;9.540;2022-09-30T03:39:34;8.90;99.90
17421;DHT22;8828;48.800;9.540;2022-09-30T03:42:04;8.90;99.90
17421;DHT22;8828;48.800;9.540;2022-09-30T03:44:38;8.90;99.90
17421;DHT22;8828;48.800;9.540;2022-09-30T03:47:07;8.90;99.90
17421;DHT22;8828;48.800;9.540;2022-09-30T03:49:36;8.90;99.90
17421;DHT22;8828;48.800;9.540;2022-09-30T03:52:07;8.90;99.90
17421;DHT22;8828;48.800;9.540;2022-09-30T03:54:42;8.90;99.90
17421;DHT22;8828;48.800;9.540;2022-09-30T03:57:11;8.80;99.90
17421;DHT22;8828;48.800;9.540;2022-09-30T03:59:38;8.90;99.90
17421;DHT22;8828;48.800;9.540;2022-09-30T04:02:06;8.90;99.90
17421;DHT22;8828;48.800;9.540;2022-09-30T04:04:38;8.90;99.90
17421;DHT22;8828;48.800;9.540;2022-09-30T04:07:08;8.90;99.90
17421;DHT22;8828;48.800;9.540;2022-09-30T04:09:36;8.80;99.90
17421;DHT22;8828;48.800;9.540;2022-09-30T04:12:05;8.80;99.90
17421;DHT22;8828;48.800;9.540;2022-09-30T04:14:33;8.80;99.90
17421;DHT22;8828;48.800;9.540;2022-09-30T04:17:02;8.80;99.90
17421;DHT22;8828;48.800;9.540;2022-09-30T04:19:30;8.80;99.90
17421;DHT22;8828;48.800;9.540;2022-09-30T04:22:01;8.80;99.90
17421;DHT22;8828;48.800;9.540;2022-09-30T04:24:30;8.80;99.90
17421;DHT22;8828;48.800;9.540;2022-09-30T04:26:58;8.80;99.90
17421;DHT22;8828;48.800;9.540;2022-09-30T04:29:26;8.80;99.90
17421;DHT22;8828;48.800;9.540;2022-09-30T04:31:54;8.80;99.90
17421;DHT22;8828;48.800;9.540;2022-09-30T04:34:21;8.80;99.90
17421;DHT22;8828;48.800;9.540;2022-09-30T04:36:49;8.80;99.90
17421;DHT22;8828;48.800;9.540;2022-09-30T04:39:17;8.80;99.90
17421;DHT22;8828;48.800;9.540;2022-09-30T04:41:46;8.80;99.90
17421;DHT22;8828;48.800;9.540;2022-09-30T04:44:13;8.80;99.90
17421;DHT22;8828;48.800;9.540;2022-09-30T04:46:41;8.80;99.90
17421;DHT22;8828;48.800;9.540;2022-09-30T04:49:09;8.80;99.90
17421;DHT22;8828;48.800;9.540;2022-09-30T04:51:37;8.80;99.90
17421;DHT22;8828;48.800;9.540;2022-09-30T04:54:09;8.80;99.90
17421;DHT22;8828;48.800;9.540;2022-09-30T04:56:36;8.80;99.90
17421;DHT22;8828;48.800;9.540;2022-09-30T04:59:06;8.80;99.90
17421;DHT22;8828;48.800;9.540;2022-09-30T05:01:33;8.80;99.90
17421;DHT22;8828;48.800;9.540;2022-09-30T05:04:01;8.80;99.90
17421;DHT22;8828;48.800;9.540;2022-09-30T05:06:29;8.80;99.90
17421;DHT22;8828;48.800;9.540;2022-09-30T05:08:57;8.80;99.90
17421;DHT22;8828;48.800;9.540;2022-09-30T05:11:25;8.80;99.90
17421;DHT22;8828;48.800;9.540;2022-09-30T05:13:53;8.80;99.90
17421;DHT22;8828;48.800;9.540;2022-09-30T05:16:22;8.80;99.90
17421;DHT22;8828;48.800;9.540;2022-09-30T05:18:50;8.80;99.90
17421;DHT22;8828;48.800;9.540;2022-09-30T05:21:18;8.80;99.90
17421;DHT22;8828;48.800;9.540;2022-09-30T05:23:46;8.80;99.90
17421;DHT22;8828;48.800;9.540;2022-09-30T05:26:14;8.80;99.90
17421;DHT22;8828;48.800;9.540;2022-09-30T05:28:42;8.70;99.90
17421;DHT22;8828;48.800;9.540;2022-09-30T05:31:10;8.70;99.90
17421;DHT22;8828;48.800;9.540;2022-09-30T05:33:40;8.70;99.90
17421;DHT22;8828;48.800;9.540;2022-09-30T05:36:08;8.70;99.90
17421;DHT22;8828;48.800;9.540;2022-09-30T05:38:38;8.70;99.90
17421;DHT22;8828;48.800;9.540;2022-09-30T05:41:06;8.70;99.90
17421;DHT22;8828;48.800;9.540;2022-09-30T05:43:36;8.70;99.90
17421;DHT22;8828;48.800;9.540;2022-09-30T05:46:04;8.70;99.90
17421;DHT22;8828;48.800;9.540;2022-09-30T05:48:32;8.70;99.90
17421;DHT22;8828;48.800;9.540;2022-09-30T05:51:01;8.70;99.90
17421;DHT22;8828;48.800;9.540;2022-09-30T05:53:29;8.80;99.90
17421;DHT22;8828;48.800;9.540;2022-09-30T05:55:58;8.80;99.90
17421;DHT22;8828;48.800;9.540;2022-09-30T05:58:26;8.80;99.90
17421;DHT22;8828;48.800;9.540;2022-09-30T06:00:53;8.70;99.90
17421;DHT22;8828;48.800;9.540;2022-09-30T06:03:21;8.70;99.90
17421;DHT22;8828;48.800;9.540;2022-09-30T06:05:54;8.80;99.90
17421;DHT22;8828;48.800;9.540;2022-09-30T06:08:23;8.80;99.90
17421;DHT22;8828;48.800;9.540;2022-09-30T06:10:51;8.80;99.90
17421;DHT22;8828;48.800;9.540;2022-09-30T06:13:19;8.80;99.90
17421;DHT22;8828;48.800;9.540;2022-09-30T06:15:53;8.80;99.90
17421;DHT22;8828;48.800;9.540;2022-09-30T06:18:22;8.80;99.90
17421;DHT22;8828;48.800;9.540;2022-09-30T06:20:50;8.80;99.90
17421;DHT22;8828;48.800;9.540;2022-09-30T06:23:19;8.80;99.90
17421;DHT22;8828;48.800;9.540;2022-09-30T06:25:50;8.80;99.90
17421;DHT22;8828;48.800;9.540;2022-09-30T06:28:18;8.90;99.90
17421;DHT22;8828;48.800;9.540;2022-09-30T06:30:46;8.90;99.90
17421;DHT22;8828;48.800;9.540;2022-09-30T06:33:14;8.90;99.90
17421;DHT22;8828;48.800;9.540;2022-09-30T06:35:42;8.90;99.90
17421;DHT22;8828;48.800;9.540;2022-09-30T06:38:12;8.90;99.90
17421;DHT22;8828;48.800;9.540;2022-09-30T06:40:42;9.00;99.90
17421;DHT22;8828;48.800;9.540;2022-09-30T06:43:11;9.00;99.90
17421;DHT22;8828;48.800;9.540;2022-09-30T06:45:39;9.10;99.90
17421;DHT22;8828;48.800;9.540;2022-09-30T06:48:08;9.10;99.90
17421;DHT22;8828;48.800;9.540;2022-09-30T06:50:36;9.20;99.90
17421;DHT22;8828;48.800;9.540;2022-09-30T06:53:05;9.20;99.90
17421;DHT22;8828;48.800;9.540;2022-09-30T06:55:33;9.20;99.90
17421;DHT22;8828;48.800;9.540;2022-09-30T06:58:04;9.30;99.90
17421;DHT22;8828;48.800;9.540;2022-09-30T07:00:35;9.40;99.90
17421;DHT22;8828;48.800;9.540;2022-09-30T07:03:03;9.40;99.90
17421;DHT22;8828;48.800;9.540;2022-09-30T07:05:35;9.50;99.90
17421;DHT22;8828;48.800;9.540;2022-09-30T07:08:02;9.40;99.90
17421;DHT22;8828;48.800;9.540;2022-09-30T07:10:31;9.40;99.90
17421;DHT22;8828;48.800;9.540;2022-09-30T07:12:58;9.50;99.90
17421;DHT22;8828;48.800;9.540;2022-09-30T07:15:28;9.50;99.90
17421;DHT22;8828;48.800;9.540;2022-09-30T07:17:57;9.60;99.90
17421;DHT22;8828;48.800;9.540;2022-09-30T07:20:26;9.60;99.90
17421;DHT22;8828;48.800;9.540;2022-09-30T07:22:54;9.70;99.90
17421;DHT22;8828;48.800;9.540;2022-09-30T07:25:24;9.70;99.90
17421;DHT22;8828;48.800;9.540;2022-09-30T07:27:52;9.80;99.90
17421;DHT22;8828;48.800;9.540;2022-09-30T07:30:20;9.90;99.90
17421;DHT22;8828;48.800;9.540;2022-09-30T07:32:52;9.90;99.90
17421;DHT22;8828;48.800;9.540;2022-09-30T07:35:22;9.90;99.90
17421;DHT22;8828;48.800;9.540;2022-09-30T07:37:49;9.90;99.90
17421;DHT22;8828;48.800;9.540;2022-09-30T07:40:17;10.00;99.90
17421;DHT22;8828;48.800;9.540;2022-09-30T07:42:45;10.10;99.90
17421;DHT22;8828;48.800;9.540;2022-09-30T07:45:12;10.20;99.90
17421;DHT22;8828;48.800;9.540;2022-09-30T07:47:44;10.20;99.90
17421;DHT22;8828;48.800;9.540;2022-09-30T07:50:19;10.30;99.90
17421;DHT22;8828;48.800;9.540;2022-09-30T07:52:48;10.40;99.90
17421;DHT22;8828;48.800;9.540;2022-09-30T07:55:15;10.50;99.90
17421;DHT22;8828;48.800;9.540;2022-09-30T07:57:43;10.50;99.90
17421;DHT22;8828;48.800;9.540;2022-09-30T08:00:11;10.60;99.90
17421;DHT22;8828;48.800;9.540;2022-09-30T08:02:59;10.50;99.90
17421;DHT22;8828;48.800;9.540;2022-09-30T08:05:26;10.60;99.90
17421;DHT22;8828;48.800;9.540;2022-09-30T08:07:56;10.70;99.90
17421;DHT22;8828;48.800;9.540;2022-09-30T08:10:23;10.70;99.90
17421;DHT22;8828;48.800;9.540;2022-09-30T08:12:51;10.80;99.90
17421;DHT22;8828;48.800;9.540;2022-09-30T08:15:24;11.00;99.90
17421;DHT22;8828;48.800;9.540;2022-09-30T08:17:52;11.10;99.90
17421;DHT22;8828;48.800;9.540;2022-09-30T08:20:20;11.30;99.90
17421;DHT22;8828;48.800;9.540;2022-09-30T08:22:50;11.40;99.90
17421;DHT22;8828;48.800;9.540;2022-09-30T08:25:20;11.60;99.90
17421;DHT22;8828;48.800;9.540;2022-09-30T08:27:48;11.80;99.90
17421;DHT22;8828;48.800;9.540;2022-09-30T08:30:15;11.90;99.90
17421;DHT22;8828;48.800;9.540;2022-09-30T08:32:43;12.00;99.90
17421;DHT22;8828;48.800;9.540;2022-09-30T08:35:11;12.10;99.90
17421;DHT22;8828;48.800;9.540;2022-09-30T08:37:39;12.30;99.90
17421;DHT22;8828;48.800;9.540;2022-09-30T08:40:08;12.30;99.90
17421;DHT22;8828;48.800;9.540;2022-09-30T08:42:41;12.30;99.90
17421;DHT22;8828;48.800;9.540;2022-09-30T08:45:24;12.40;99.90
17421;DHT22;8828;48.800;9.540;2022-09-30T08:47:57;12.50;99.90
17421;DHT22;8828;48.800;9.540;2022-09-30T08:50:31;12.80;99.90
17421;DHT22;8828;48.800;9.540;2022-09-30T08:53:01;13.00;99.90
17421;DHT22;8828;48.800;9.540;2022-09-30T08:55:32;13.20;99.90
17421;DHT22;8828;48.800;9.540;2022-09-30T08:58:02;13.40;99.90
17421;DHT22;8828;48.800;9.540;2022-09-30T09:00:31;13.60;99.90
17421;DHT22;8828;48.800;9.540;2022-09-30T09:03:00;13.70;99.90
17421;DHT22;8828;48.800;9.540;2022-09-30T09:05:31;13.80;99.90
17421;DHT22;8828;48.800;9.540;2022-09-30T09:08:03;14.00;99.90
17421;DHT22;8828;48.800;9.540;2022-09-30T09:10:37;14.20;99.90
17421;DHT22;8828;48.800;9.540;2022-09-30T09:13:11;14.30;99.90
17421;DHT22;8828;48.800;9.540;2022-09-30T09:15:48;14.50;99.90
17421;DHT22;8828;48.800;9.540;2022-09-30T09:18:25;14.70;99.90
17421;DHT22;8828;48.800;9.540;2022-09-30T09:20:55;14.90;99.90
17421;DHT22;8828;48.800;9.540;2022-09-30T09:23:24;15.10;99.90
17421;DHT22;8828;48.800;9.540;2022-09-30T09:25:52;15.40;99.90
17421;DHT22;8828;48.800;9.540;2022-09-30T09:28:27;15.90;99.90
17421;DHT22;8828;48.800;9.540;2022-09-30T09:30:58;16.60;99.90
17421;DHT22;8828;48.800;9.540;2022-09-30T09:33:29;17.20;99.90
17421;DHT22;8828;48.800;9.540;2022-09-30T09:36:06;18.10;99.90
17421;DHT22;8828;48.800;9.540;2022-09-30T09:38:39;19.10;99.90
17421;DHT22;8828;48.800;9.540;2022-09-30T09:41:20;20.00;99.90
17421;DHT22;8828;48.800;9.540;2022-09-30T09:43:57;20.70;99.90
17421;DHT22;8828;48.800;9.540;2022-09-30T09:46:29;21.20;99.90
17421;DHT22;8828;48.800;9.540;2022-09-30T09:49:28;21.30;99.90
17421;DHT22;8828;48.800;9.540;2022-09-30T09:52:12;22.00;99.90
17421;DHT22;8828;48.800;9.540;2022-09-30T09:54:51;23.20;99.90
17421;DHT22;8828;48.800;9.540;2022-09-30T09:57:24;24.50;99.90
17421;DHT22;8828;48.800;9.540;2022-09-30T09:59:56;25.80;99.10
17421;DHT22;8828;48.800;9.540;2022-09-30T10:02:30;26.90;94.80
17421;DHT22;8828;48.800;9.540;2022-09-30T10:04:58;27.80;91.40
17421;DHT22;8828;48.800;9.540;2022-09-30T10:07:28;28.70;87.00
17421;DHT22;8828;48.800;9.540;2022-09-30T10:10:10;29.90;79.30
17421;DHT22;8828;48.800;9.540;2022-09-30T10:12:49;30.50;73.60
17421;DHT22;8828;48.800;9.540;2022-09-30T10:15:21;31.20;68.80
17421;DHT22;8828;48.800;9.540;2022-09-30T10:17:52;31.60;65.60
17421;DHT22;8828;48.800;9.540;2022-09-30T10:20:28;32.30;62.60
17421;DHT22;8828;48.800;9.540;2022-09-30T10:23:06;33.00;58.90
17421;DHT22;8828;48.800;9.540;2022-09-30T10:25:34;34.00;56.60
17421;DHT22;8828;48.800;9.540;2022-09-30T10:28:19;34.90;54.40
17421;DHT22;8828;48.800;9.540;2022-09-30T10:30:53;35.50;51.20
17421;DHT22;8828;48.800;9.540;2022-09-30T10:33:27;35.90;49.70
17421;DHT22;8828;48.800;9.540;2022-09-30T10:36:00;36.60;48.30
17421;DHT22;8828;48.800;9.540;2022-09-30T10:38:29;37.10;46.30
17421;DHT22;8828;48.800;9.540;2022-09-30T10:41:01;37.10;44.80
17421;DHT22;8828;48.800;9.540;2022-09-30T10:43:35;36.70;44.50
17421;DHT22;8828;48.800;9.540;2022-09-30T10:46:07;36.60;44.10
17421;DHT22;8828;48.800;9.540;2022-09-30T10:48:54;36.90;43.40
17421;DHT22;8828;48.800;9.540;2022-09-30T10:51:26;36.90;43.30
17421;DHT22;8828;48.800;9.540;2022-09-30T10:53:55;37.00;43.10
17421;DHT22;8828;48.800;9.540;2022-09-30T10:56:42;37.30;42.50
17421;DHT22;8828;48.800;9.540;2022-09-30T10:59:20;37.00;41.70
17421;DHT22;8828;48.800;9.540;2022-09-30T11:01:54;36.30;42.20
17421;DHT22;8828;48.800;9.540;2022-09-30T11:04:30;36.10;42.20
17421;DHT22;8828;48.800;9.540;2022-09-30T11:07:11;36.20;41.50
17421;DHT22;8828;48.800;9.540;2022-09-30T11:09:45;36.40;41.00
17421;DHT22;8828;48.800;9.540;2022-09-30T11:12:19;36.90;40.90
17421;DHT22;8828;48.800;9.540;2022-09-30T11:14:52;37.40;40.80
17421;DHT22;8828;48.800;9.540;2022-09-30T11:17:33;37.90;39.40
17421;DHT22;8828;48.800;9.540;2022-09-30T11:20:13;37.90;39.90
17421;DHT22;8828;48.800;9.540;2022-09-30T11:22:48;38.30;39.40
17421;DHT22;8828;48.800;9.540;2022-09-30T11:25:23;39.10;39.10
17421;DHT22;8828;48.800;9.540;2022-09-30T11:28:04;39.40;38.00
17421;DHT22;8828;48.800;9.540;2022-09-30T11:30:39;39.70;38.10
17421;DHT22;8828;48.800;9.540;2022-09-30T11:33:32;40.30;37.20
17421;DHT22;8828;48.800;9.540;2022-09-30T11:36:07;40.60;36.40
17421;DHT22;8828;48.800;9.540;2022-09-30T11:38:48;41.00;36.10
17421;DHT22;8828;48.800;9.540;2022-09-30T11:41:23;41.00;35.70
17421;DHT22;8828;48.800;9.540;2022-09-30T11:44:03;40.90;35.70
17421;DHT22;8828;48.800;9.540;2022-09-30T11:49:54;40.80;35.50
17421;DHT22;8828;48.800;9.540;2022-09-30T11:52:33;40.90;33.00
17421;DHT22;8828;48.800;9.540;2022-09-30T11:55:28;40.70;32.90
17421;DHT22;8828;48.800;9.540;2022-09-30T11:58:02;40.00;33.90
17421;DHT22;8828;48.800;9.540;2022-09-30T12:00:54;39.80;34.40
17421;DHT22;8828;48.800;9.540;2022-09-30T12:03:28;40.00;33.50
17421;DHT22;8828;48.800;9.540;2022-09-30T12:06:02;40.40;32.50
17421;DHT22;8828;48.800;9.540;2022-09-30T12:08:34;41.00;32.60
17421;DHT22;8828;48.800;9.540;2022-09-30T12:11:07;41.00;32.70
17421;DHT22;8828;48.800;9.540;2022-09-30T12:13:45;41.10;32.90
17421;DHT22;8828;48.800;9.540;2022-09-30T12:16:20;40.90;33.20
17421;DHT22;8828;48.800;9.540;2022-09-30T12:18:52;40.50;33.30
17421;DHT22;8828;48.800;9.540;2022-09-30T12:21:30;40.60;32.80
17421;DHT22;8828;48.800;9.540;2022-09-30T12:24:05;40.80;32.20
17421;DHT22;8828;48.800;9.540;2022-09-30T12:26:37;40.60;31.60
17421;DHT22;8828;48.800;9.540;2022-09-30T12:29:12;40.50;32.80
17421;DHT22;8828;48.800;9.540;2022-09-30T12:32:21;40.50;32.70
17421;DHT22;8828;48.800;9.540;2022-09-30T12:35:01;40.40;33.20
17421;DHT22;8828;48.800;9.540;2022-09-30T12:37:41;40.70;33.00
17421;DHT22;8828;48.800;9.540;2022-09-30T12:40:31;40.70;33.20
17421;DHT22;8828;48.800;9.540;2022-09-30T12:46:09;40.60;33.20
17421;DHT22;8828;48.800;9.540;2022-09-30T12:48:42;40.40;33.00
17421;DHT22;8828;48.800;9.540;2022-09-30T12:51:22;40.40;33.20
17421;DHT22;8828;48.800;9.540;2022-09-30T12:53:58;40.40;33.20
17421;DHT22;8828;48.800;9.540;2022-09-30T12:56:31;40.10;33.00
17421;DHT22;8828;48.800;9.540;2022-09-30T12:59:00;40.20;33.60
17421;DHT22;8828;48.800;9.540;2022-09-30T13:01:30;40.20;33.80
17421;DHT22;8828;48.800;9.540;2022-09-30T13:04:17;40.10;33.60
17421;DHT22;8828;48.800;9.540;2022-09-30T13:07:15;40.10;33.90
17421;DHT22;8828;48.800;9.540;2022-09-30T13:12:43;38.40;33.70
17421;DHT22;8828;48.800;9.540;2022-09-30T13:15:36;38.00;34.90
17421;DHT22;8828;48.800;9.540;2022-09-30T13:21:21;38.60;34.50
17421;DHT22;8828;48.800;9.540;2022-09-30T13:23:50;38.70;34.30
17421;DHT22;8828;48.800;9.540;2022-09-30T13:26:40;38.70;34.50
17421;DHT22;8828;48.800;9.540;2022-09-30T13:29:33;38.50;34.40
17421;DHT22;8828;48.800;9.540;2022-09-30T13:32:09;36.50;35.70
17421;DHT22;8828;48.800;9.540;2022-09-30T13:34:56;34.60;37.50
17421;DHT22;8828;48.800;9.540;2022-09-30T13:37:42;32.60;38.50
17421;DHT22;8828;48.800;9.540;2022-09-30T13:40:21;31.70;40.80
17421;DHT22;8828;48.800;9.540;2022-09-30T13:43:16;32.00;41.00
17421;DHT22;8828;48.800;9.540;2022-09-30T13:45:46;32.80;40.20
17421;DHT22;8828;48.800;9.540;2022-09-30T13:48:20;33.50;39.50
17421;DHT22;8828;48.800;9.540;2022-09-30T13:50:49;34.10;39.10
17421;DHT22;8828;48.800;9.540;2022-09-30T13:53:23;34.50;38.90
17421;DHT22;8828;48.800;9.540;2022-09-30T13:55:55;34.50;38.70
17421;DHT22;8828;48.800;9.540;2022-09-30T14:01:32;32.40;40.10
17421;DHT22;8828;48.800;9.540;2022-09-30T14:07:16;31.30;41.70
17421;DHT22;8828;48.800;9.540;2022-09-30T14:13:08;28.60;44.60
17421;DHT22;8828;48.800;9.540;2022-09-30T14:19:01;26.30;46.90
17421;DHT22;8828;48.800;9.540;2022-09-30T14:21:35;25.40;48.00
17421;DHT22;8828;48.800;9.540;2022-09-30T14:24:09;24.70;48.70
17421;DHT22;8828;48.800;9.540;2022-09-30T14:27:01;24.10;49.80
17421;DHT22;8828;48.800;9.540;2022-09-30T14:29:40;23.70;50.60
17421;DHT22;8828;48.800;9.540;2022-09-30T14:32:13;23.20;50.90
17421;DHT22;8828;48.800;9.540;2022-09-30T14:34:45;22.90;50.80
17421;DHT22;8828;48.800;9.540;2022-09-30T14:37:18;22.60;51.80
17421;DHT22;8828;48.800;9.540;2022-09-30T14:39:48;22.30;52.60
17421;DHT22;8828;48.800;9.540;2022-09-30T14:42:29;22.10;53.50
17421;DHT22;8828;48.800;9.540;2022-09-30T14:45:00;21.80;54.70
17421;DHT22;8828;48.800;9.540;2022-09-30T14:47:35;21.60;54.90
17421;DHT22;8828;48.800;9.540;2022-09-30T14:50:09;21.40;55.30
17421;DHT22;8828;48.800;9.540;2022-09-30T14:52:41;21.20;55.60
17421;DHT22;8828;48.800;9.540;2022-09-30T14:55:24;21.00;56.00
17421;DHT22;8828;48.800;9.540;2022-09-30T14:57:53;20.90;56.90
17421;DHT22;8828;48.800;9.540;2022-09-30T15:00:27;20.80;57.30
17421;DHT22;8828;48.800;9.540;2022-09-30T15:02:57;20.60;57.70
17421;DHT22;8828;48.800;9.540;2022-09-30T15:05:27;20.50;58.10
17421;DHT22;8828;48.800;9.540;2022-09-30T15:07:55;20.40;58.40
17421;DHT22;8828;48.800;9.540;2022-09-30T15:10:23;20.40;58.20
17421;DHT22;8828;48.800;9.540;2022-09-30T15:12:52;20.20;58.20
17421;DHT22;8828;48.800;9.540;2022-09-30T15:15:25;20.10;58.30
17421;DHT22;8828;48.800;9.540;2022-09-30T15:17:54;20.00;58.10
17421;DHT22;8828;48.800;9.540;2022-09-30T15:20:28;19.90;58.20
17421;DHT22;8828;48.800;9.540;2022-09-30T15:22:58;19.80;58.10
17421;DHT22;8828;48.800;9.540;2022-09-30T15:25:29;19.70;59.70
17421;DHT22;8828;48.800;9.540;2022-09-30T15:27:58;19.60;59.70
17421;DHT22;8828;48.800;9.540;2022-09-30T15:30:27;19.50;59.50
17421;DHT22;8828;48.800;9.540;2022-09-30T15:32:57;19.40;59.80
17421;DHT22;8828;48.800;9.540;2022-09-30T15:35:28;19.30;59.60
17421;DHT22;8828;48.800;9.540;2022-09-30T15:38:06;19.20;60.00
17421;DHT22;8828;48.800;9.540;2022-09-30T15:40:35;19.10;60.00
17421;DHT22;8828;48.800;9.540;2022-09-30T15:43:30;19.00;60.00
17421;DHT22;8828;48.800;9.540;2022-09-30T15:46:19;18.90;60.40
17421;DHT22;8828;48.800;9.540;2022-09-30T15:48:48;18.90;62.00
17421;DHT22;8828;48.800;9.540;2022-09-30T15:51:32;18.80;60.60
17421;DHT22;8828;48.800;9.540;2022-09-30T15:54:22;18.80;60.80
17421;DHT22;8828;48.800;9.540;2022-09-30T15:56:52;18.70;60.90
17421;DHT22;8828;48.800;9.540;2022-09-30T15:59:21;18.60;61.50
17421;DHT22;8828;48.800;9.540;2022-09-30T16:01:51;18.50;61.90
17421;DHT22;8828;48.800;9.540;2022-09-30T16:04:23;18.50;65.30
17421;DHT22;8828;48.800;9.540;2022-09-30T16:06:55;18.40;67.30
17421;DHT22;8828;48.800;9.540;2022-09-30T16:09:27;18.30;68.80
17421;DHT22;8828;48.800;9.540;2022-09-30T16:12:00;18.30;69.50
17421;DHT22;8828;48.800;9.540;2022-09-30T16:14:33;18.20;70.80
17421;DHT22;8828;48.800;9.540;2022-09-30T16:17:04;18.10;71.40
17421;DHT22;8828;48.800;9.540;2022-09-30T16:19:32;18.00;72.10
17421;DHT22;8828;48.800;9.540;2022-09-30T16:22:02;18.00;73.10
17421;DHT22;8828;48.800;9.540;2022-09-30T16:24:46;17.80;73.80
17421;DHT22;8828;48.800;9.540;2022-09-30T16:27:26;17.80;74.20
17421;DHT22;8828;48.800;9.540;2022-09-30T16:32:26;17.50;75.70
17421;DHT22;8828;48.800;9.540;2022-09-30T16:34:55;17.40;76.40
17421;DHT22;8828;48.800;9.540;2022-09-30T16:37:25;17.30;77.60
17421;DHT22;8828;48.800;9.540;2022-09-30T16:39:54;17.20;77.70
17421;DHT22;8828;48.800;9.540;2022-09-30T16:42:25;17.10;78.80
17421;DHT22;8828;48.800;9.540;2022-09-30T16:44:52;17.00;80.10
17421;DHT22;8828;48.800;9.540;2022-09-30T16:47:21;16.90;80.50
17421;DHT22;8828;48.800;9.540;2022-09-30T16:49:49;16.80;81.10
17421;DHT22;8828;48.800;9.540;2022-09-30T16:52:17;16.60;81.60
17421;DHT22;8828;48.800;9.540;2022-09-30T16:54:47;16.50;82.80
17421;DHT22;8828;48.800;9.540;2022-09-30T16:57:15;16.40;84.40
17421;DHT22;8828;48.800;9.540;2022-09-30T16:59:43;16.30;85.40
17421;DHT22;8828;48.800;9.540;2022-09-30T17:02:13;16.20;85.60
17421;DHT22;8828;48.800;9.540;2022-09-30T17:04:42;16.10;86.50
17421;DHT22;8828;48.800;9.540;2022-09-30T17:07:12;16.00;87.00